createdAt,value
2018-03-26T00:00:00.288Z,350
2018-03-26T00:00:12.495Z,350
2018-03-26T00:00:24.635Z,350
2018-03-26T00:00:36.818Z,350
2018-03-26T00:00:49.253Z,350
2018-03-26T00:01:01.395Z,350
2018-03-26T00:01:13.531Z,350
2018-03-26T00:01:25.697Z,350
2018-03-26T00:01:37.832Z,350
2018-03-26T00:01:49.993Z,350
2018-03-26T00:02:02.125Z,350
2018-03-26T00:02:14.293Z,350
2018-03-26T00:02:26.582Z,350
2018-03-26T00:02:38.801Z,350
2018-03-26T00:02:50.949Z,350
2018-03-26T00:03:03.075Z,350
2018-03-26T00:03:15.206Z,350
2018-03-26T00:03:27.337Z,350
2018-03-26T00:03:39.519Z,350
2018-03-26T00:03:51.669Z,350
2018-03-26T00:04:03.892Z,350
2018-03-26T00:04:16.051Z,350
2018-03-26T00:04:28.227Z,350
2018-03-26T00:04:40.349Z,350
2018-03-26T00:04:52.501Z,350
2018-03-26T00:05:04.659Z,350
2018-03-26T00:05:16.802Z,350
2018-03-26T00:05:28.951Z,350
2018-03-26T00:05:41.079Z,350
2018-03-26T00:05:53.260Z,350
2018-03-26T00:06:05.386Z,350
2018-03-26T00:06:17.523Z,350
2018-03-26T00:06:29.686Z,350
2018-03-26T00:06:41.824Z,350
2018-03-26T00:06:54.010Z,350
2018-03-26T00:07:06.149Z,350
2018-03-26T00:07:18.281Z,350
2018-03-26T00:07:30.439Z,350
2018-03-26T00:07:42.705Z,350
2018-03-26T00:07:54.842Z,350
2018-03-26T00:08:06.986Z,350
2018-03-26T00:08:19.118Z,350
2018-03-26T00:08:31.284Z,350
2018-03-26T00:08:43.438Z,350
2018-03-26T00:08:55.610Z,350
2018-03-26T00:09:07.794Z,350
2018-03-26T00:09:19.924Z,350
2018-03-26T00:09:32.052Z,350
2018-03-26T00:09:44.206Z,350
2018-03-26T00:09:56.357Z,350
2018-03-26T00:10:08.522Z,350
2018-03-26T00:10:20.675Z,350
2018-03-26T00:10:32.817Z,350
2018-03-26T00:10:44.933Z,350
2018-03-26T00:10:57.076Z,350
2018-03-26T00:11:09.237Z,350
2018-03-26T00:11:21.378Z,350
2018-03-26T00:11:33.522Z,350
2018-03-26T00:11:45.723Z,350
2018-03-26T00:11:57.875Z,350
2018-03-26T00:12:10.074Z,350
2018-03-26T00:12:22.261Z,350
2018-03-26T00:12:34.470Z,350
2018-03-26T00:12:46.653Z,350
2018-03-26T00:12:58.935Z,350
2018-03-26T00:13:11.098Z,350
2018-03-26T00:13:23.240Z,350
2018-03-26T00:13:35.364Z,350
2018-03-26T00:13:47.489Z,350
2018-03-26T00:13:59.628Z,350
2018-03-26T00:14:11.780Z,350
2018-03-26T00:14:23.914Z,350
2018-03-26T00:14:36.054Z,350
2018-03-26T00:14:48.197Z,350
2018-03-26T00:15:00.344Z,350
2018-03-26T00:15:12.507Z,350
2018-03-26T00:15:24.635Z,350
2018-03-26T00:15:36.824Z,350
2018-03-26T00:15:48.981Z,350
2018-03-26T00:16:01.126Z,350
2018-03-26T00:16:13.299Z,350
2018-03-26T00:16:25.443Z,350
2018-03-26T00:16:37.580Z,350
2018-03-26T00:16:49.715Z,350
2018-03-26T00:17:01.909Z,350
2018-03-26T00:17:14.060Z,350
2018-03-26T00:17:26.188Z,350
2018-03-26T00:17:38.335Z,350
2018-03-26T00:17:50.500Z,350
2018-03-26T00:18:02.638Z,350
2018-03-26T00:18:14.767Z,350
2018-03-26T00:18:26.892Z,350
2018-03-26T00:18:39.092Z,350
2018-03-26T00:18:51.211Z,350
2018-03-26T00:19:03.366Z,350
2018-03-26T00:19:15.514Z,350
2018-03-26T00:19:27.718Z,350
2018-03-26T00:19:39.879Z,350
2018-03-26T00:19:52.053Z,350
2018-03-26T00:20:04.192Z,350
2018-03-26T00:20:16.360Z,350
2018-03-26T00:20:28.499Z,350
2018-03-26T00:20:40.647Z,350
2018-03-26T00:20:52.791Z,350
2018-03-26T00:21:04.944Z,350
2018-03-26T00:21:17.093Z,350
2018-03-26T00:21:29.223Z,350
2018-03-26T00:21:41.347Z,350
2018-03-26T00:21:53.820Z,350
2018-03-26T00:22:05.975Z,350
2018-03-26T00:22:18.134Z,350
2018-03-26T00:22:30.316Z,350
2018-03-26T00:22:42.451Z,350
2018-03-26T00:22:54.619Z,350
2018-03-26T00:23:06.775Z,350
2018-03-26T00:23:18.919Z,350
2018-03-26T00:23:31.063Z,350
2018-03-26T00:23:43.204Z,350
2018-03-26T00:23:55.351Z,350
2018-03-26T00:24:07.500Z,350
2018-03-26T00:24:19.659Z,350
2018-03-26T00:24:31.807Z,350
2018-03-26T00:24:43.957Z,350
2018-03-26T00:24:56.115Z,350
2018-03-26T00:25:08.304Z,350
2018-03-26T00:25:20.453Z,350
2018-03-26T00:25:32.609Z,350
2018-03-26T00:25:44.761Z,350
2018-03-26T00:25:56.946Z,350
2018-03-26T00:26:09.069Z,350
2018-03-26T00:26:21.250Z,350
2018-03-26T00:26:33.386Z,350
2018-03-26T00:26:45.553Z,350
2018-03-26T00:26:57.690Z,350
2018-03-26T00:27:09.941Z,350
2018-03-26T00:27:22.410Z,350
2018-03-26T00:27:34.549Z,350
2018-03-26T00:27:46.692Z,350
2018-03-26T00:27:58.997Z,350
2018-03-26T00:28:11.162Z,350
2018-03-26T00:28:23.326Z,350
2018-03-26T00:28:35.458Z,350
2018-03-26T00:28:47.616Z,350
2018-03-26T00:28:59.737Z,350
2018-03-26T00:29:11.946Z,350
2018-03-26T00:29:24.090Z,350
2018-03-26T00:29:36.214Z,350
2018-03-26T00:29:48.398Z,350
2018-03-26T00:30:00.524Z,349
2018-03-26T00:30:12.705Z,335
2018-03-26T00:30:24.844Z,317
2018-03-26T00:30:36.972Z,317
2018-03-26T00:30:49.125Z,315
2018-03-26T00:31:01.258Z,310
2018-03-26T00:31:13.399Z,310
2018-03-26T00:31:25.534Z,310
2018-03-26T00:31:37.688Z,310
2018-03-26T00:31:49.818Z,309
2018-03-26T00:32:01.969Z,309
2018-03-26T00:32:14.108Z,310
2018-03-26T00:32:26.262Z,310
2018-03-26T00:32:38.397Z,310
2018-03-26T00:32:50.551Z,309
2018-03-26T00:33:02.736Z,300
2018-03-26T00:33:14.853Z,301
2018-03-26T00:33:26.994Z,301
2018-03-26T00:33:39.122Z,301
2018-03-26T00:33:51.261Z,301
2018-03-26T00:34:03.408Z,301
2018-03-26T00:34:15.548Z,301
2018-03-26T00:34:27.784Z,301
2018-03-26T00:34:39.924Z,302
2018-03-26T00:34:52.511Z,302
2018-03-26T00:35:04.718Z,302
2018-03-26T00:35:16.836Z,312
2018-03-26T00:35:28.985Z,309
2018-03-26T00:35:41.135Z,309
2018-03-26T00:35:53.266Z,309
2018-03-26T00:36:05.413Z,306
2018-03-26T00:36:17.611Z,306
2018-03-26T00:36:29.759Z,306
2018-03-26T00:36:41.905Z,306
2018-03-26T00:36:54.091Z,307
2018-03-26T00:37:06.299Z,307
2018-03-26T00:37:18.438Z,306
2018-03-26T00:37:30.723Z,307
2018-03-26T00:37:42.892Z,306
2018-03-26T00:37:55.033Z,307
2018-03-26T00:38:07.180Z,306
2018-03-26T00:38:19.306Z,306
2018-03-26T00:38:31.506Z,307
2018-03-26T00:38:43.668Z,307
2018-03-26T00:38:55.829Z,307
2018-03-26T00:39:07.979Z,307
2018-03-26T00:39:20.135Z,307
2018-03-26T00:39:32.275Z,307
2018-03-26T00:39:44.407Z,307
2018-03-26T00:39:56.555Z,307
2018-03-26T00:40:08.685Z,307
2018-03-26T00:40:20.890Z,307
2018-03-26T00:40:33.048Z,312
2018-03-26T00:40:45.195Z,312
2018-03-26T00:40:57.334Z,312
2018-03-26T00:41:09.614Z,312
2018-03-26T00:41:21.826Z,304
2018-03-26T00:41:34.036Z,301
2018-03-26T00:41:46.181Z,341
2018-03-26T00:41:58.318Z,337
2018-03-26T00:42:10.461Z,336
2018-03-26T00:42:22.625Z,303
2018-03-26T00:42:34.769Z,314
2018-03-26T00:42:46.913Z,317
2018-03-26T00:42:59.046Z,317
2018-03-26T00:43:11.224Z,317
2018-03-26T00:43:23.389Z,312
2018-03-26T00:43:35.529Z,303
2018-03-26T00:43:47.698Z,303
2018-03-26T00:43:59.845Z,313
2018-03-26T00:44:11.992Z,313
2018-03-26T00:44:24.169Z,313
2018-03-26T00:44:36.311Z,313
2018-03-26T00:44:48.452Z,313
2018-03-26T00:45:00.591Z,313
2018-03-26T00:45:12.720Z,313
2018-03-26T00:45:24.848Z,313
2018-03-26T00:45:37.015Z,313
2018-03-26T00:45:49.148Z,313
2018-03-26T00:46:01.276Z,313
2018-03-26T00:46:13.835Z,313
2018-03-26T00:46:25.979Z,313
2018-03-26T00:46:38.115Z,313
2018-03-26T00:46:50.251Z,313
2018-03-26T00:47:02.400Z,313
2018-03-26T00:47:14.551Z,313
2018-03-26T00:47:26.739Z,313
2018-03-26T00:47:38.883Z,304
2018-03-26T00:47:51.001Z,304
2018-03-26T00:48:03.327Z,304
2018-03-26T00:48:15.481Z,304
2018-03-26T00:48:27.623Z,304
2018-03-26T00:48:39.789Z,304
2018-03-26T00:48:51.935Z,304
2018-03-26T00:49:04.143Z,304
2018-03-26T00:49:16.321Z,305
2018-03-26T00:49:28.503Z,316
2018-03-26T00:49:40.661Z,316
2018-03-26T00:49:52.796Z,316
2018-03-26T00:50:04.952Z,316
2018-03-26T00:50:17.125Z,316
2018-03-26T00:50:29.326Z,316
2018-03-26T00:50:41.491Z,316
2018-03-26T00:50:53.613Z,316
2018-03-26T00:51:05.752Z,316
2018-03-26T00:51:17.921Z,316
2018-03-26T00:51:30.054Z,317
2018-03-26T00:51:42.206Z,316
2018-03-26T00:51:54.346Z,317
2018-03-26T00:52:06.469Z,317
2018-03-26T00:52:18.609Z,317
2018-03-26T00:52:30.747Z,317
2018-03-26T00:52:42.883Z,321
2018-03-26T00:52:55.225Z,321
2018-03-26T00:53:07.410Z,321
2018-03-26T00:53:19.542Z,321
2018-03-26T00:53:31.678Z,321
2018-03-26T00:53:43.819Z,321
2018-03-26T00:53:55.951Z,321
2018-03-26T00:54:08.089Z,321
2018-03-26T00:54:20.264Z,321
2018-03-26T00:54:32.417Z,321
2018-03-26T00:54:44.561Z,321
2018-03-26T00:54:56.803Z,321
2018-03-26T00:55:09.005Z,321
2018-03-26T00:55:21.132Z,321
2018-03-26T00:55:33.350Z,321
2018-03-26T00:55:45.477Z,321
2018-03-26T00:55:57.644Z,321
2018-03-26T00:56:09.766Z,321
2018-03-26T00:56:21.912Z,321
2018-03-26T00:56:34.198Z,321
2018-03-26T00:56:46.334Z,321
2018-03-26T00:56:58.600Z,321
2018-03-26T00:57:10.928Z,321
2018-03-26T00:57:23.084Z,321
2018-03-26T00:57:35.214Z,321
2018-03-26T00:57:47.349Z,321
2018-03-26T00:57:59.475Z,321
2018-03-26T00:58:11.627Z,321
2018-03-26T00:58:23.767Z,321
2018-03-26T00:58:35.901Z,321
2018-03-26T00:58:48.056Z,321
2018-03-26T00:59:00.189Z,321
2018-03-26T00:59:12.333Z,321
2018-03-26T00:59:24.472Z,321
2018-03-26T00:59:36.611Z,321
2018-03-26T00:59:48.753Z,321
2018-03-26T01:00:00.886Z,321
2018-03-26T01:00:13.042Z,321
2018-03-26T01:00:25.217Z,321
2018-03-26T01:00:37.371Z,321
2018-03-26T01:00:49.842Z,321
2018-03-26T01:01:01.981Z,321
2018-03-26T01:01:14.131Z,321
2018-03-26T01:01:26.303Z,321
2018-03-26T01:01:38.448Z,330
2018-03-26T01:01:50.577Z,330
2018-03-26T01:02:02.755Z,330
2018-03-26T01:02:14.903Z,330
2018-03-26T01:02:27.567Z,329
2018-03-26T01:02:39.710Z,329
2018-03-26T01:02:51.868Z,329
2018-03-26T01:03:04.013Z,330
2018-03-26T01:03:16.150Z,329
2018-03-26T01:03:28.281Z,329
2018-03-26T01:03:40.442Z,329
2018-03-26T01:03:52.595Z,329
2018-03-26T01:04:04.729Z,329
2018-03-26T01:04:16.868Z,329
2018-03-26T01:04:29.034Z,329
2018-03-26T01:04:41.181Z,329
2018-03-26T01:04:53.321Z,329
2018-03-26T01:05:05.482Z,329
2018-03-26T01:05:17.634Z,329
2018-03-26T01:05:29.770Z,329
2018-03-26T01:05:41.903Z,329
2018-03-26T01:05:54.052Z,329
2018-03-26T01:06:06.188Z,329
2018-03-26T01:06:18.357Z,329
2018-03-26T01:06:30.514Z,329
2018-03-26T01:06:42.644Z,329
2018-03-26T01:06:54.775Z,329
2018-03-26T01:07:07.004Z,329
2018-03-26T01:07:19.143Z,329
2018-03-26T01:07:31.269Z,329
2018-03-26T01:07:43.406Z,329
2018-03-26T01:07:55.541Z,329
2018-03-26T01:08:07.673Z,329
2018-03-26T01:08:19.793Z,329
2018-03-26T01:08:31.973Z,329
2018-03-26T01:08:44.173Z,329
2018-03-26T01:08:56.313Z,329
2018-03-26T01:09:08.559Z,329
2018-03-26T01:09:20.707Z,329
2018-03-26T01:09:32.864Z,329
2018-03-26T01:09:45.055Z,329
2018-03-26T01:09:57.206Z,329
2018-03-26T01:10:09.383Z,329
2018-03-26T01:10:21.535Z,329
2018-03-26T01:10:33.678Z,329
2018-03-26T01:10:45.829Z,329
2018-03-26T01:10:57.959Z,329
2018-03-26T01:11:10.109Z,329
2018-03-26T01:11:22.319Z,329
2018-03-26T01:11:34.520Z,329
2018-03-26T01:11:46.687Z,329
2018-03-26T01:11:58.911Z,329
2018-03-26T01:12:11.081Z,329
2018-03-26T01:12:23.237Z,330
2018-03-26T01:12:35.382Z,5
2018-03-26T01:12:47.537Z,5
2018-03-26T01:13:00.072Z,5
2018-03-26T01:13:12.414Z,11
2018-03-26T01:13:24.554Z,11
2018-03-26T01:13:36.683Z,11
2018-03-26T01:13:48.841Z,11
2018-03-26T01:14:00.985Z,11
2018-03-26T01:14:13.121Z,11
2018-03-26T01:14:25.269Z,11
2018-03-26T01:14:37.401Z,342
2018-03-26T01:14:49.538Z,342
2018-03-26T01:15:01.712Z,342
2018-03-26T01:15:13.866Z,342
2018-03-26T01:15:25.999Z,342
2018-03-26T01:15:38.149Z,342
2018-03-26T01:15:50.270Z,342
2018-03-26T01:16:02.405Z,342
2018-03-26T01:16:14.551Z,342
2018-03-26T01:16:26.738Z,342
2018-03-26T01:16:38.866Z,342
2018-03-26T01:16:51.008Z,342
2018-03-26T01:17:03.145Z,342
2018-03-26T01:17:15.272Z,342
2018-03-26T01:17:27.424Z,342
2018-03-26T01:17:39.573Z,342
2018-03-26T01:17:51.945Z,327
2018-03-26T01:18:04.091Z,329
2018-03-26T01:18:16.239Z,327
2018-03-26T01:18:28.390Z,327
2018-03-26T01:18:40.547Z,315
2018-03-26T01:18:52.715Z,326
2018-03-26T01:19:04.858Z,325
2018-03-26T01:19:16.986Z,326
2018-03-26T01:19:29.114Z,326
2018-03-26T01:19:41.278Z,326
2018-03-26T01:19:53.411Z,326
2018-03-26T01:20:05.560Z,326
2018-03-26T01:20:17.685Z,326
2018-03-26T01:20:29.842Z,326
2018-03-26T01:20:41.990Z,326
2018-03-26T01:20:54.123Z,326
2018-03-26T01:21:06.247Z,326
2018-03-26T01:21:18.381Z,326
2018-03-26T01:21:30.535Z,326
2018-03-26T01:21:42.691Z,326
2018-03-26T01:21:54.824Z,326
2018-03-26T01:22:06.970Z,326
2018-03-26T01:22:19.108Z,326
2018-03-26T01:22:31.249Z,326
2018-03-26T01:22:43.382Z,326
2018-03-26T01:22:55.587Z,326
2018-03-26T01:23:07.726Z,326
2018-03-26T01:23:19.875Z,326
2018-03-26T01:23:32.021Z,326
2018-03-26T01:23:44.140Z,326
2018-03-26T01:23:56.281Z,326
2018-03-26T01:24:08.449Z,326
2018-03-26T01:24:20.582Z,326
2018-03-26T01:24:32.713Z,326
2018-03-26T01:24:44.835Z,326
2018-03-26T01:24:56.965Z,326
2018-03-26T01:25:09.096Z,326
2018-03-26T01:25:21.239Z,326
2018-03-26T01:25:33.426Z,326
2018-03-26T01:25:45.547Z,313
2018-03-26T01:25:57.682Z,322
2018-03-26T01:26:09.816Z,322
2018-03-26T01:26:21.953Z,322
2018-03-26T01:26:34.098Z,322
2018-03-26T01:26:46.246Z,322
2018-03-26T01:26:58.365Z,322
2018-03-26T01:27:10.518Z,322
2018-03-26T01:27:22.660Z,322
2018-03-26T01:27:34.801Z,322
2018-03-26T01:27:46.951Z,324
2018-03-26T01:27:59.269Z,324
2018-03-26T01:28:11.423Z,324
2018-03-26T01:28:23.578Z,324
2018-03-26T01:28:35.721Z,324
2018-03-26T01:28:47.858Z,324
2018-03-26T01:28:59.993Z,324
2018-03-26T01:29:12.171Z,324
2018-03-26T01:29:24.309Z,324
2018-03-26T01:29:36.464Z,324
2018-03-26T01:29:48.609Z,324
2018-03-26T01:30:00.775Z,324
2018-03-26T01:30:12.905Z,324
2018-03-26T01:30:25.062Z,324
2018-03-26T01:30:37.207Z,324
2018-03-26T01:30:49.345Z,324
2018-03-26T01:31:01.482Z,324
2018-03-26T01:31:13.634Z,324
2018-03-26T01:31:25.763Z,324
2018-03-26T01:31:37.900Z,324
2018-03-26T01:31:50.045Z,324
2018-03-26T01:32:02.182Z,324
2018-03-26T01:32:14.360Z,324
2018-03-26T01:32:26.489Z,324
2018-03-26T01:32:38.636Z,324
2018-03-26T01:32:50.762Z,324
2018-03-26T01:33:02.881Z,324
2018-03-26T01:33:15.068Z,324
2018-03-26T01:33:27.198Z,324
2018-03-26T01:33:39.335Z,324
2018-03-26T01:33:51.489Z,324
2018-03-26T01:34:03.627Z,324
2018-03-26T01:34:15.757Z,324
2018-03-26T01:34:27.914Z,324
2018-03-26T01:34:40.045Z,324
2018-03-26T01:34:52.205Z,324
2018-03-26T01:35:04.402Z,324
2018-03-26T01:35:16.522Z,324
2018-03-26T01:35:28.654Z,324
2018-03-26T01:35:40.796Z,324
2018-03-26T01:35:52.921Z,324
2018-03-26T01:36:05.059Z,324
2018-03-26T01:36:17.212Z,324
2018-03-26T01:36:29.408Z,324
2018-03-26T01:36:41.606Z,324
2018-03-26T01:36:53.734Z,324
2018-03-26T01:37:05.877Z,324
2018-03-26T01:37:18.032Z,324
2018-03-26T01:37:30.307Z,324
2018-03-26T01:37:42.448Z,324
2018-03-26T01:37:54.596Z,324
2018-03-26T01:38:06.748Z,324
2018-03-26T01:38:18.870Z,324
2018-03-26T01:38:30.998Z,324
2018-03-26T01:38:43.131Z,324
2018-03-26T01:38:55.307Z,324
2018-03-26T01:39:07.480Z,324
2018-03-26T01:39:19.624Z,324
2018-03-26T01:39:31.902Z,324
2018-03-26T01:39:44.052Z,324
2018-03-26T01:39:56.204Z,324
2018-03-26T01:40:08.381Z,324
2018-03-26T01:40:20.580Z,324
2018-03-26T01:40:32.709Z,324
2018-03-26T01:40:44.834Z,324
2018-03-26T01:40:56.992Z,324
2018-03-26T01:41:09.129Z,324
2018-03-26T01:41:21.432Z,324
2018-03-26T01:41:33.579Z,324
2018-03-26T01:41:45.723Z,324
2018-03-26T01:41:57.867Z,324
2018-03-26T01:42:10.009Z,324
2018-03-26T01:42:22.171Z,324
2018-03-26T01:42:34.298Z,324
2018-03-26T01:42:46.455Z,324
2018-03-26T01:42:58.597Z,324
2018-03-26T01:43:10.789Z,324
2018-03-26T01:43:23.041Z,324
2018-03-26T01:43:35.168Z,324
2018-03-26T01:43:47.301Z,324
2018-03-26T01:43:59.437Z,324
2018-03-26T01:44:11.566Z,324
2018-03-26T01:44:23.704Z,324
2018-03-26T01:44:35.847Z,324
2018-03-26T01:44:47.971Z,324
2018-03-26T01:45:00.127Z,324
2018-03-26T01:45:12.273Z,324
2018-03-26T01:45:24.415Z,324
2018-03-26T01:45:36.548Z,324
2018-03-26T01:45:48.694Z,324
2018-03-26T01:46:00.832Z,324
2018-03-26T01:46:13.004Z,324
2018-03-26T01:46:25.128Z,324
2018-03-26T01:46:37.251Z,324
2018-03-26T01:46:49.401Z,324
2018-03-26T01:47:01.589Z,324
2018-03-26T01:47:13.737Z,324
2018-03-26T01:47:25.871Z,324
2018-03-26T01:47:38.040Z,324
2018-03-26T01:47:50.181Z,323
2018-03-26T01:48:02.466Z,323
2018-03-26T01:48:14.622Z,323
2018-03-26T01:48:26.783Z,323
2018-03-26T01:48:38.953Z,323
2018-03-26T01:48:51.088Z,323
2018-03-26T01:49:03.212Z,323
2018-03-26T01:49:15.367Z,322
2018-03-26T01:49:27.517Z,322
2018-03-26T01:49:39.647Z,322
2018-03-26T01:49:51.786Z,322
2018-03-26T01:50:03.934Z,322
2018-03-26T01:50:16.071Z,322
2018-03-26T01:50:28.223Z,322
2018-03-26T01:50:40.380Z,322
2018-03-26T01:50:52.516Z,322
2018-03-26T01:51:04.648Z,322
2018-03-26T01:51:16.783Z,322
2018-03-26T01:51:28.957Z,322
2018-03-26T01:51:41.115Z,322
2018-03-26T01:51:53.276Z,322
2018-03-26T01:52:05.429Z,322
2018-03-26T01:52:17.704Z,322
2018-03-26T01:52:29.872Z,322
2018-03-26T01:52:42.075Z,322
2018-03-26T01:52:54.396Z,322
2018-03-26T01:53:06.536Z,322
2018-03-26T01:53:18.671Z,322
2018-03-26T01:53:30.854Z,322
2018-03-26T01:53:43.000Z,322
2018-03-26T01:53:55.137Z,322
2018-03-26T01:54:07.375Z,322
2018-03-26T01:54:19.580Z,322
2018-03-26T01:54:31.708Z,322
2018-03-26T01:54:43.848Z,322
2018-03-26T01:54:56.159Z,322
2018-03-26T01:55:08.315Z,322
2018-03-26T01:55:20.445Z,322
2018-03-26T01:55:32.590Z,322
2018-03-26T01:55:44.780Z,322
2018-03-26T01:55:56.948Z,322
2018-03-26T01:56:09.081Z,322
2018-03-26T01:56:21.236Z,322
2018-03-26T01:56:33.652Z,322
2018-03-26T01:56:45.814Z,322
2018-03-26T01:56:57.937Z,322
2018-03-26T01:57:10.079Z,321
2018-03-26T01:57:22.209Z,321
2018-03-26T01:57:34.348Z,321
2018-03-26T01:57:46.469Z,321
2018-03-26T01:57:58.612Z,321
2018-03-26T01:58:10.747Z,321
2018-03-26T01:58:22.888Z,321
2018-03-26T01:58:35.015Z,321
2018-03-26T01:58:47.180Z,321
2018-03-26T01:58:59.420Z,321
2018-03-26T01:59:11.811Z,321
2018-03-26T01:59:23.964Z,321
2018-03-26T01:59:36.101Z,321
2018-03-26T01:59:48.229Z,321
2018-03-26T02:00:00.392Z,321
2018-03-26T02:00:12.594Z,321
2018-03-26T02:00:24.750Z,321
2018-03-26T02:00:36.923Z,321
2018-03-26T02:00:49.402Z,321
2018-03-26T02:01:01.559Z,321
2018-03-26T02:01:13.706Z,321
2018-03-26T02:01:25.857Z,321
2018-03-26T02:01:38.016Z,321
2018-03-26T02:01:50.156Z,321
2018-03-26T02:02:02.307Z,321
2018-03-26T02:02:14.444Z,321
2018-03-26T02:02:26.768Z,321
2018-03-26T02:02:38.894Z,321
2018-03-26T02:02:51.066Z,321
2018-03-26T02:03:03.262Z,321
2018-03-26T02:03:15.415Z,321
2018-03-26T02:03:27.553Z,321
2018-03-26T02:03:39.684Z,321
2018-03-26T02:03:51.824Z,321
2018-03-26T02:04:03.966Z,321
2018-03-26T02:04:16.116Z,321
2018-03-26T02:04:28.281Z,321
2018-03-26T02:04:40.422Z,321
2018-03-26T02:04:53.012Z,321
2018-03-26T02:05:05.153Z,321
2018-03-26T02:05:17.307Z,321
2018-03-26T02:05:29.438Z,321
2018-03-26T02:05:41.642Z,321
2018-03-26T02:05:53.851Z,321
2018-03-26T02:06:06.017Z,321
2018-03-26T02:06:18.194Z,321
2018-03-26T02:06:30.352Z,321
2018-03-26T02:06:42.489Z,321
2018-03-26T02:06:54.635Z,321
2018-03-26T02:07:06.780Z,321
2018-03-26T02:07:18.911Z,321
2018-03-26T02:07:31.080Z,321
2018-03-26T02:07:43.231Z,321
2018-03-26T02:07:55.380Z,321
2018-03-26T02:08:07.523Z,321
2018-03-26T02:08:19.681Z,321
2018-03-26T02:08:31.860Z,321
2018-03-26T02:08:44.015Z,321
2018-03-26T02:08:56.148Z,321
2018-03-26T02:09:08.287Z,321
2018-03-26T02:09:20.400Z,321
2018-03-26T02:09:32.564Z,321
2018-03-26T02:09:44.704Z,321
2018-03-26T02:09:56.836Z,321
2018-03-26T02:10:08.953Z,321
2018-03-26T02:10:21.086Z,321
2018-03-26T02:10:33.207Z,321
2018-03-26T02:10:45.334Z,321
2018-03-26T02:10:57.465Z,321
2018-03-26T02:11:09.598Z,321
2018-03-26T02:11:21.740Z,321
2018-03-26T02:11:33.915Z,321
2018-03-26T02:11:46.076Z,321
2018-03-26T02:11:58.209Z,321
2018-03-26T02:12:10.342Z,321
2018-03-26T02:12:22.483Z,321
2018-03-26T02:12:34.680Z,321
2018-03-26T02:12:46.813Z,321
2018-03-26T02:12:59.119Z,321
2018-03-26T02:13:11.257Z,321
2018-03-26T02:13:23.392Z,321
2018-03-26T02:13:35.524Z,321
2018-03-26T02:13:47.675Z,321
2018-03-26T02:13:59.837Z,321
2018-03-26T02:14:11.985Z,321
2018-03-26T02:14:24.139Z,321
2018-03-26T02:14:36.270Z,321
2018-03-26T02:14:48.420Z,321
2018-03-26T02:15:00.574Z,321
2018-03-26T02:15:12.711Z,321
2018-03-26T02:15:24.868Z,321
2018-03-26T02:15:36.989Z,338
2018-03-26T02:15:49.171Z,337
2018-03-26T02:16:01.342Z,337
2018-03-26T02:16:13.487Z,329
2018-03-26T02:16:25.602Z,331
2018-03-26T02:16:37.760Z,330
2018-03-26T02:16:49.926Z,341
2018-03-26T02:17:02.057Z,341
2018-03-26T02:17:14.224Z,340
2018-03-26T02:17:26.356Z,340
2018-03-26T02:17:38.494Z,327
2018-03-26T02:17:50.675Z,342
2018-03-26T02:18:02.931Z,342
2018-03-26T02:18:15.078Z,320
2018-03-26T02:18:27.214Z,321
2018-03-26T02:18:39.336Z,321
2018-03-26T02:18:51.469Z,321
2018-03-26T02:19:03.614Z,321
2018-03-26T02:19:15.791Z,321
2018-03-26T02:19:27.951Z,321
2018-03-26T02:19:40.097Z,355
2018-03-26T02:19:52.245Z,355
2018-03-26T02:20:04.401Z,355
2018-03-26T02:20:16.573Z,355
2018-03-26T02:20:28.771Z,355
2018-03-26T02:20:40.923Z,355
2018-03-26T02:20:53.066Z,355
2018-03-26T02:21:05.212Z,355
2018-03-26T02:21:17.354Z,355
2018-03-26T02:21:29.469Z,355
2018-03-26T02:21:41.593Z,355
2018-03-26T02:21:53.737Z,355
2018-03-26T02:22:05.895Z,355
2018-03-26T02:22:18.033Z,355
2018-03-26T02:22:30.175Z,355
2018-03-26T02:22:42.314Z,355
2018-03-26T02:22:54.481Z,355
2018-03-26T02:23:06.649Z,355
2018-03-26T02:23:18.836Z,355
2018-03-26T02:23:30.979Z,355
2018-03-26T02:23:43.164Z,355
2018-03-26T02:23:55.305Z,355
2018-03-26T02:24:07.442Z,355
2018-03-26T02:24:19.637Z,355
2018-03-26T02:24:31.771Z,355
2018-03-26T02:24:43.891Z,355
2018-03-26T02:24:56.011Z,355
2018-03-26T02:25:08.249Z,355
2018-03-26T02:25:20.380Z,355
2018-03-26T02:25:32.503Z,355
2018-03-26T02:25:44.651Z,355
2018-03-26T02:25:56.803Z,355
2018-03-26T02:26:08.978Z,355
2018-03-26T02:26:21.107Z,355
2018-03-26T02:26:33.233Z,355
2018-03-26T02:26:45.902Z,355
2018-03-26T02:26:58.067Z,355
2018-03-26T02:27:10.202Z,355
2018-03-26T02:27:22.324Z,355
2018-03-26T02:27:34.466Z,355
2018-03-26T02:27:46.662Z,355
2018-03-26T02:27:59.027Z,355
2018-03-26T02:28:11.167Z,355
2018-03-26T02:28:23.307Z,355
2018-03-26T02:28:35.481Z,355
2018-03-26T02:28:47.628Z,355
2018-03-26T02:28:59.765Z,355
2018-03-26T02:29:11.911Z,355
2018-03-26T02:29:24.049Z,355
2018-03-26T02:29:36.201Z,355
2018-03-26T02:29:48.406Z,355
2018-03-26T02:30:00.626Z,355
2018-03-26T02:30:12.818Z,355
2018-03-26T02:30:25.093Z,350
2018-03-26T02:30:37.400Z,350
2018-03-26T02:30:49.582Z,350
2018-03-26T02:31:01.728Z,350
2018-03-26T02:31:13.897Z,350
2018-03-26T02:31:26.309Z,350
2018-03-26T02:31:38.504Z,343
2018-03-26T02:31:50.698Z,342
2018-03-26T02:32:02.862Z,342
2018-03-26T02:32:15.054Z,344
2018-03-26T02:32:27.221Z,332
2018-03-26T02:32:39.410Z,326
2018-03-26T02:32:51.586Z,329
2018-03-26T02:33:03.781Z,329
2018-03-26T02:33:15.949Z,329
2018-03-26T02:33:28.151Z,329
2018-03-26T02:33:40.307Z,329
2018-03-26T02:33:52.494Z,329
2018-03-26T02:34:04.739Z,329
2018-03-26T02:34:16.913Z,329
2018-03-26T02:34:29.067Z,329
2018-03-26T02:34:41.244Z,329
2018-03-26T02:34:53.432Z,329
2018-03-26T02:35:05.609Z,329
2018-03-26T02:35:17.794Z,329
2018-03-26T02:35:29.948Z,329
2018-03-26T02:35:42.160Z,309
2018-03-26T02:35:54.320Z,309
2018-03-26T02:36:06.482Z,309
2018-03-26T02:36:18.649Z,309
2018-03-26T02:36:30.864Z,309
2018-03-26T02:36:43.075Z,309
2018-03-26T02:36:55.234Z,309
2018-03-26T02:37:07.417Z,309
2018-03-26T02:37:19.592Z,309
2018-03-26T02:37:31.926Z,309
2018-03-26T02:37:44.101Z,309
2018-03-26T02:37:56.245Z,309
2018-03-26T02:38:08.425Z,309
2018-03-26T02:38:20.614Z,309
2018-03-26T02:38:32.849Z,309
2018-03-26T02:38:45.019Z,309
2018-03-26T02:38:57.165Z,309
2018-03-26T02:39:09.340Z,309
2018-03-26T02:39:21.512Z,309
2018-03-26T02:39:33.767Z,309
2018-03-26T02:39:45.905Z,309
2018-03-26T02:39:58.081Z,309
2018-03-26T02:40:10.231Z,309
2018-03-26T02:40:22.438Z,309
2018-03-26T02:40:34.616Z,309
2018-03-26T02:40:46.790Z,309
2018-03-26T02:40:58.972Z,309
2018-03-26T02:41:11.235Z,309
2018-03-26T02:41:23.392Z,309
2018-03-26T02:41:35.600Z,309
2018-03-26T02:41:47.833Z,309
2018-03-26T02:42:00.020Z,309
2018-03-26T02:42:12.198Z,317
2018-03-26T02:42:24.359Z,318
2018-03-26T02:42:36.496Z,318
2018-03-26T02:42:48.674Z,320
2018-03-26T02:43:00.882Z,325
2018-03-26T02:43:13.043Z,320
2018-03-26T02:43:25.262Z,311
2018-03-26T02:43:37.443Z,324
2018-03-26T02:43:49.581Z,309
2018-03-26T02:44:01.794Z,40
2018-03-26T02:44:13.962Z,355
2018-03-26T02:44:26.174Z,5
2018-03-26T02:44:38.330Z,360
2018-03-26T02:44:50.513Z,355
2018-03-26T02:45:02.664Z,340
2018-03-26T02:45:14.804Z,328
2018-03-26T02:45:26.975Z,336
2018-03-26T02:45:39.152Z,340
2018-03-26T02:45:51.411Z,348
2018-03-26T02:46:03.563Z,317
2018-03-26T02:46:15.894Z,317
2018-03-26T02:46:28.054Z,317
2018-03-26T02:46:40.221Z,317
2018-03-26T02:46:52.384Z,317
2018-03-26T02:47:04.540Z,350
2018-03-26T02:47:16.715Z,350
2018-03-26T02:47:28.857Z,350